createdAt,value
2023-01-02T00:02:02.219Z,101250.00
2023-01-02T00:04:31.481Z,101251.75
2023-01-02T00:07:02.279Z,101260.59
2023-01-02T00:09:31.662Z,101262.38
2023-01-02T00:12:00.617Z,101262.34
2023-01-02T00:14:30.034Z,101266.75
2023-01-02T00:16:59.113Z,101256.97
2023-01-02T00:19:28.373Z,101261.41
2023-01-02T00:21:57.428Z,101252.47
2023-01-02T00:24:28.700Z,101261.38
2023-01-02T00:26:57.801Z,101264.88
2023-01-02T00:29:27.096Z,101266.66
2023-01-02T00:31:56.228Z,101271.03
2023-01-02T00:34:26.751Z,101264.78
2023-01-02T00:36:55.881Z,101266.47
2023-01-02T00:39:25.151Z,101267.28
2023-01-02T00:41:55.664Z,101268.97
2023-01-02T00:44:24.953Z,101261.78
2023-01-02T00:46:54.871Z,101256.44
2023-01-02T00:49:24.495Z,101250.06
2023-01-02T00:51:53.482Z,101250.91
2023-01-02T00:54:22.780Z,101249.91
2023-01-02T00:56:51.919Z,101256.03
2023-01-02T00:59:22.625Z,101255.94
2023-01-02T01:01:52.060Z,101251.41
2023-01-02T01:04:21.162Z,101244.25
2023-01-02T01:06:51.076Z,101246.84
2023-01-02T01:09:20.506Z,101240.56
2023-01-02T01:11:49.466Z,101251.16
2023-01-02T01:14:18.961Z,101252.84
2023-01-02T01:16:49.441Z,101248.34
2023-01-02T01:19:18.683Z,101243.84
2023-01-02T01:21:47.652Z,101241.13
2023-01-02T01:24:17.670Z,101252.63
2023-01-02T01:26:46.761Z,101248.19
2023-01-02T01:29:16.014Z,101249.91
2023-01-02T01:31:45.225Z,101249.91
2023-01-02T01:34:16.254Z,101254.28
2023-01-02T01:36:45.736Z,101250.75
2023-01-02T01:39:15.035Z,101247.22
2023-01-02T01:41:44.204Z,101245.41
2023-01-02T01:44:42.813Z,101243.63
2023-01-02T01:47:19.873Z,101238.28
2023-01-02T01:49:52.831Z,101248.06
2023-01-02T01:52:26.953Z,101242.72
2023-01-02T01:55:01.035Z,101240.06
2023-01-02T01:57:37.483Z,101241.78
2023-01-02T02:00:08.319Z,101249.78
2023-01-02T02:02:41.199Z,101245.34
2023-01-02T02:05:16.134Z,101247.13
2023-01-02T02:07:52.583Z,101251.50
2023-01-02T02:10:22.303Z,101248.84
2023-01-02T02:12:51.323Z,101252.41
2023-01-02T02:15:29.310Z,101242.56
2023-01-02T02:18:07.685Z,101250.53
2023-01-02T02:20:51.169Z,101245.13
2023-01-02T02:23:43.088Z,101234.41
2023-01-02T02:26:49.716Z,101221.94
2023-01-02T02:30:04.086Z,101225.44
2023-01-02T02:32:56.490Z,101236.13
2023-01-02T02:35:37.398Z,101231.66
2023-01-02T02:38:13.188Z,101240.50
2023-01-02T02:40:54.121Z,101226.28
2023-01-02T02:43:31.423Z,101229.81
2023-01-02T02:46:10.668Z,101215.59
2023-01-02T02:48:46.518Z,101213.84
2023-01-02T02:51:21.993Z,101223.59
2023-01-02T02:53:59.301Z,101217.34
2023-01-02T02:56:30.829Z,101220.94
2023-01-02T02:59:00.930Z,101219.16
2023-01-02T03:01:31.618Z,101215.69
2023-01-02T03:04:01.143Z,101208.56
2023-01-02T03:06:46.701Z,101218.28
2023-01-02T03:09:20.272Z,101210.31
2023-01-02T03:11:56.326Z,101209.44
2023-01-02T03:14:32.789Z,101218.31
2023-01-02T03:17:08.821Z,101211.22
2023-01-02T03:19:44.211Z,101208.56
2023-01-02T03:22:16.141Z,101197.94
2023-01-02T03:24:47.799Z,101205.94
2023-01-02T03:27:20.582Z,101200.59
2023-01-02T03:29:55.677Z,101196.16
2023-01-02T03:32:31.878Z,101191.75
2023-01-02T03:35:05.377Z,101188.22
2023-01-02T03:37:39.708Z,101182.81
2023-01-02T03:40:14.482Z,101174.00
2023-01-02T03:42:51.538Z,101184.66
2023-01-02T03:45:26.485Z,101177.63
2023-01-02T03:48:04.039Z,101177.63
2023-01-02T03:50:37.904Z,101163.44
2023-01-02T03:53:08.739Z,101159.00
2023-01-02T03:55:41.693Z,101158.09
2023-01-02T03:58:17.882Z,101144.78
2023-01-02T04:00:57.116Z,101144.78
2023-01-02T04:03:35.269Z,101143.03
2023-01-02T04:06:10.569Z,101137.72
2023-01-02T04:08:46.105Z,101139.50
2023-01-02T04:11:19.103Z,101130.59
2023-01-02T04:13:52.245Z,101122.59
2023-01-02T04:16:25.494Z,101119.09
2023-01-02T04:18:59.542Z,101120.81
2023-01-02T04:21:33.585Z,101116.38
2023-01-02T04:24:09.252Z,101116.31
2023-01-02T04:26:46.200Z,101119.91
2023-01-02T04:29:15.570Z,101114.59
2023-01-02T04:31:48.667Z,101115.50
2023-01-02T04:34:22.294Z,101113.69
2023-01-02T04:36:51.927Z,101118.16
2023-01-02T04:39:23.834Z,101111.91
2023-01-02T04:41:53.109Z,101111.03
2023-01-02T04:44:22.218Z,101101.25
2023-01-02T04:46:51.496Z,101095.03
2023-01-02T04:49:22.847Z,101104.75
2023-01-02T04:51:52.232Z,101100.31
2023-01-02T04:54:21.434Z,101095.84
2023-01-02T04:56:50.587Z,101095.84
2023-01-02T04:59:19.563Z,101086.97
2023-01-02T05:01:49.003Z,101078.91
2023-01-02T05:04:18.102Z,101078.91
2023-01-02T05:06:48.928Z,101077.19
2023-01-02T05:09:17.907Z,101072.75
2023-01-02T05:11:48.181Z,101072.75
2023-01-02T05:14:17.221Z,101056.72
2023-01-02T05:16:46.526Z,101059.34
2023-01-02T05:19:15.843Z,101062.78
2023-01-02T05:22:02.733Z,101044.13
2023-01-02T05:24:33.125Z,101044.88
2023-01-02T05:27:02.505Z,101042.06
2023-01-02T05:29:33.305Z,101036.53
2023-01-02T05:32:02.795Z,101027.66
2023-01-02T05:34:31.862Z,101020.47
2023-01-02T05:37:01.243Z,101015.06
2023-01-02T05:39:30.208Z,101015.88
2023-01-02T05:42:00.944Z,101010.44
2023-01-02T05:44:30.127Z,101020.16
2023-01-02T05:46:59.348Z,101011.31
2023-01-02T05:49:28.414Z,101013.91
2023-01-02T05:51:57.772Z,101012.94
2023-01-02T05:54:26.758Z,101013.78
2023-01-02T05:56:57.207Z,101003.09
2023-01-02T05:59:27.877Z,101000.31
2023-01-02T06:02:03.191Z,100998.47
2023-01-02T06:04:32.449Z,100986.94
2023-01-02T06:07:01.951Z,100988.66
2023-01-02T06:09:30.955Z,100989.56
2023-01-02T06:12:00.385Z,100997.50
2023-01-02T06:14:30.880Z,100994.78
2023-01-02T06:17:01.107Z,100984.09
2023-01-02T06:19:30.252Z,100987.66
2023-01-02T06:21:59.538Z,100983.25
2023-01-02T06:24:29.663Z,100985.84
2023-01-02T06:26:59.060Z,100978.75
2023-01-02T06:29:29.457Z,100980.53
2023-01-02T06:31:58.957Z,100967.22
2023-01-02T06:34:28.034Z,100970.72
2023-01-02T06:36:57.416Z,100963.63
2023-01-02T06:39:27.025Z,100962.72
2023-01-02T06:42:21.406Z,100965.28
2023-01-02T06:44:51.955Z,100959.03
2023-01-02T06:47:21.614Z,100951.09
2023-01-02T06:49:50.572Z,100944.78
2023-01-02T06:52:20.112Z,100937.69
2023-01-02T06:54:49.116Z,100936.72
2023-01-02T06:57:18.568Z,100937.59
2023-01-02T06:59:47.577Z,100942.88
2023-01-02T07:02:18.405Z,100935.88
2023-01-02T07:04:48.101Z,100925.19
2023-01-02T07:07:17.421Z,100921.59
2023-01-02T07:09:46.407Z,100915.38
2023-01-02T07:12:15.662Z,100911.78
2023-01-02T07:14:44.656Z,100914.41
2023-01-02T07:17:14.384Z,100910.84
2023-01-02T07:19:49.840Z,100906.41
2023-01-02T07:22:22.590Z,100893.03
2023-01-02T07:24:51.575Z,100888.59
2023-01-02T07:27:20.980Z,100882.31
2023-01-02T07:29:49.986Z,100885.84
2023-01-02T07:32:25.411Z,100875.13
2023-01-02T07:34:57.780Z,100875.91
2023-01-02T07:37:27.333Z,100876.81
2023-01-02T07:39:56.327Z,100866.03
2023-01-02T07:42:25.651Z,100874.13
2023-01-02T07:44:55.057Z,100874.97
2023-01-02T07:47:24.435Z,100872.25
2023-01-02T07:49:53.426Z,100865.91
2023-01-02T07:52:24.059Z,100851.66
2023-01-02T07:54:53.223Z,100856.06
2023-01-02T07:57:22.464Z,100856.94
2023-01-02T07:59:53.669Z,100854.25
2023-01-02T08:02:23.234Z,100855.06
2023-01-02T08:04:52.478Z,100854.22
2023-01-02T08:07:23.377Z,100856.84
2023-01-02T08:09:52.434Z,100850.56
2023-01-02T08:12:21.747Z,100857.66
2023-01-02T08:14:51.699Z,100850.41
2023-01-02T08:17:21.080Z,100846.84
2023-01-02T08:19:50.180Z,100853.06
2023-01-02T08:22:19.842Z,100852.16
2023-01-02T08:24:50.226Z,100853.06
2023-01-02T08:27:19.828Z,100851.22
2023-01-02T08:29:49.358Z,100847.63
2023-01-02T08:32:18.838Z,100852.00
2023-01-02T08:34:48.175Z,100841.34
2023-01-02T08:37:17.295Z,100839.63
2023-01-02T08:39:46.535Z,100835.09
2023-01-02T08:42:17.544Z,100842.00
2023-01-02T08:44:46.684Z,100841.13
2023-01-02T08:47:16.368Z,100834.94
2023-01-02T08:49:46.285Z,100838.41
2023-01-02T08:52:15.662Z,100836.63
2023-01-02T08:54:45.093Z,100833.00
2023-01-02T08:57:15.931Z,100824.13
2023-01-02T08:59:45.048Z,100814.25
2023-01-02T09:02:15.804Z,100825.81
2023-01-02T09:04:44.990Z,100819.50
2023-01-02T09:07:16.034Z,100820.31
2023-01-02T09:09:45.178Z,100814.91
2023-01-02T09:12:14.487Z,100817.56
2023-01-02T09:14:44.968Z,100820.19
2023-01-02T09:17:14.497Z,100818.31
2023-01-02T09:19:45.142Z,100808.38
2023-01-02T09:22:14.553Z,100812.75
2023-01-02T09:24:43.919Z,100809.03
2023-01-02T09:27:13.827Z,100800.94
2023-01-02T09:29:44.338Z,100792.00
2023-01-02T09:32:13.724Z,100791.91
2023-01-02T09:34:42.665Z,100784.69
2023-01-02T09:37:11.938Z,100781.09
2023-01-02T09:39:40.922Z,100791.69
2023-01-02T09:42:16.712Z,100786.16
2023-01-02T09:44:50.267Z,100785.22
2023-01-02T09:47:21.832Z,100786.97
2023-01-02T09:49:54.355Z,100767.31
2023-01-02T09:52:27.568Z,100754.75
2023-01-02T09:54:56.929Z,100751.16
2023-01-02T09:57:41.488Z,100752.78
2023-01-02T10:00:20.362Z,100749.16
2023-01-02T10:03:08.052Z,100755.38
2023-01-02T10:06:07.323Z,100755.28
2023-01-02T10:08:51.688Z,100756.13
2023-01-02T10:11:33.348Z,100740.88
2023-01-02T10:14:18.500Z,100736.44
2023-01-02T10:16:52.451Z,100743.38
2023-01-02T10:19:29.031Z,100731.78
2023-01-02T10:22:01.846Z,100729.91
2023-01-02T10:24:41.362Z,100728.91
2023-01-02T10:27:18.420Z,100733.38
2023-01-02T10:29:53.148Z,100726.09
2023-01-02T10:32:28.078Z,100714.41
2023-01-02T10:35:10.668Z,100710.75
2023-01-02T10:37:40.954Z,100715.97
2023-01-02T10:40:10.938Z,100716.66
2023-01-02T10:42:41.174Z,100706.75
2023-01-02T10:45:17.161Z,100706.50
2023-01-02T10:47:47.682Z,100700.06
2023-01-02T10:50:22.024Z,100684.84
2023-01-02T10:52:53.948Z,100693.69
2023-01-02T10:55:34.945Z,100683.66
2023-01-02T10:58:06.197Z,100689.69
2023-01-02T11:00:37.698Z,100687.81
2023-01-02T11:03:17.336Z,100675.16
2023-01-02T11:05:49.493Z,100676.84
2023-01-02T11:08:22.057Z,100675.75
2023-01-02T11:10:52.443Z,100669.34
2023-01-02T11:13:22.959Z,100672.78
2023-01-02T11:15:58.271Z,100673.41
2023-01-02T11:18:32.178Z,100681.25
2023-01-02T11:21:05.122Z,100674.81
2023-01-02T11:23:39.043Z,100678.22
2023-01-02T11:26:20.341Z,100677.97
2023-01-02T11:28:52.756Z,100677.81
2023-01-02T11:31:23.978Z,100681.25
2023-01-02T11:34:08.112Z,100676.50
2023-01-02T11:36:37.901Z,100679.03
2023-01-02T11:39:23.591Z,100671.72
2023-01-02T11:42:17.941Z,100655.53
2023-01-02T11:44:55.653Z,100660.69
2023-01-02T11:47:33.718Z,100657.78
2023-01-02T11:50:05.357Z,100656.69
2023-01-02T11:52:47.492Z,100649.47
2023-01-02T11:55:29.464Z,100645.69
2023-01-02T11:58:07.089Z,100650.97
2023-01-02T12:00:40.445Z,100658.28
2023-01-02T12:03:18.934Z,100654.59
2023-01-02T12:06:04.065Z,100636.47
2023-01-02T12:08:50.665Z,100631.13
2023-01-02T12:11:33.707Z,100630.13
2023-01-02T12:14:14.035Z,100631.00
2023-01-02T12:16:52.272Z,100617.50
2023-01-02T12:19:47.363Z,100617.44
2023-01-02T12:22:42.288Z,100601.31
2023-01-02T12:25:36.126Z,100593.03
2023-01-02T12:28:13.495Z,100593.09
2023-01-02T12:30:49.702Z,100587.75
2023-01-02T12:33:42.333Z,100586.81
2023-01-02T12:36:25.816Z,100583.34
2023-01-02T12:39:33.127Z,100583.34
2023-01-02T12:42:19.512Z,100592.09
2023-01-02T12:44:52.027Z,100591.22
2023-01-02T12:47:49.536Z,100594.75
2023-01-02T12:50:49.201Z,100592.97
2023-01-02T12:53:38.668Z,100596.34
2023-01-02T12:56:14.072Z,100589.09
2023-01-02T12:59:06.788Z,100586.38
2023-01-02T13:01:42.411Z,100591.66
2023-01-02T13:04:18.142Z,100592.56
2023-01-02T13:06:51.821Z,100584.63
2023-01-02T13:09:28.715Z,100583.75
2023-01-02T13:12:05.682Z,100575.66
2023-01-02T13:14:40.993Z,100577.22
2023-01-02T13:17:30.573Z,100584.47
2023-01-02T13:20:13.534Z,100590.78
2023-01-02T13:22:55.393Z,100581.41
2023-01-02T13:25:26.221Z,100593.00
2023-01-02T13:27:59.227Z,100587.66
2023-01-02T13:30:44.417Z,100572.66
2023-01-02T13:33:35.039Z,100575.34
2023-01-02T13:36:17.638Z,100565.31
2023-01-02T13:38:50.634Z,100561.16
2023-01-02T13:41:21.551Z,100556.72
2023-01-02T13:43:56.587Z,100564.63
2023-01-02T13:49:21.943Z,100553.91
2023-01-02T13:51:59.852Z,100549.47
2023-01-02T13:54:38.121Z,100553.91
2023-01-02T13:57:19.514Z,100550.34
2023-01-02T14:00:01.609Z,100548.75
2023-01-02T14:02:42.878Z,100548.84
2023-01-02T14:05:49.258Z,100543.31
2023-01-02T14:08:26.066Z,100550.56
2023-01-02T14:10:58.364Z,100552.44
2023-01-02T14:13:35.805Z,100554.03
2023-01-02T14:16:45.835Z,100559.41
2023-01-02T14:19:26.907Z,100557.91
2023-01-02T14:22:06.596Z,100547.19
2023-01-02T14:24:39.883Z,100558.69
2023-01-02T14:27:22.701Z,100559.78
2023-01-02T14:29:55.097Z,100554.47
2023-01-02T14:32:36.976Z,100562.53
2023-01-02T14:35:09.300Z,100557.09
2023-01-02T14:37:44.052Z,100549.19
2023-01-02T14:40:34.155Z,100559.13
2023-01-02T14:43:23.633Z,100565.50
2023-01-02T14:45:56.463Z,100552.75
2023-01-02T14:48:33.263Z,100558.13
2023-01-02T14:51:07.803Z,100558.25
2023-01-02T14:53:42.464Z,100554.66
2023-01-02T14:56:15.771Z,100560.72
2023-01-02T14:58:47.218Z,100546.69
2023-01-02T15:01:42.122Z,100552.06
2023-01-02T15:04:21.754Z,100556.22
2023-01-02T15:06:57.167Z,100554.47
2023-01-02T15:09:33.897Z,100558.13
2023-01-02T15:12:23.699Z,100550.88
2023-01-02T15:14:53.828Z,100551.81
2023-01-02T15:17:25.193Z,100552.75
2023-01-02T15:19:55.823Z,100551.97
2023-01-02T15:22:30.757Z,100563.31
2023-01-02T15:24:59.866Z,100553.69
2023-01-02T15:27:31.664Z,100558.25
2023-01-02T15:30:02.963Z,100558.91
2023-01-02T15:32:34.828Z,100551.88
2023-01-02T15:35:23.694Z,100551.88
2023-01-02T15:37:53.828Z,100553.69
2023-01-02T15:40:27.761Z,100556.31
2023-01-02T15:43:19.326Z,100561.50
2023-01-02T15:45:51.458Z,100565.19
2023-01-02T15:48:22.806Z,100559.63
2023-01-02T15:50:56.476Z,100570.34
2023-01-02T15:53:30.375Z,100567.34
2023-01-02T15:56:00.391Z,100576.56
2023-01-02T15:58:31.900Z,100564.13
2023-01-02T16:01:15.467Z,100562.31
2023-01-02T16:04:02.971Z,100561.16
2023-01-02T16:06:40.287Z,100546.88
2023-01-02T16:09:20.626Z,100552.22
2023-01-02T16:11:53.018Z,100541.59
2023-01-02T16:14:30.953Z,100545.91
2023-01-02T16:17:04.818Z,100550.44
2023-01-02T16:19:38.253Z,100548.38
2023-01-02T16:22:21.100Z,100544.00
2023-01-02T16:24:57.066Z,100543.00
2023-01-02T16:27:29.906Z,100539.31
2023-01-02T16:29:59.753Z,100537.31
2023-01-02T16:32:30.097Z,100530.25
2023-01-02T16:35:20.831Z,100540.09
2023-01-02T16:37:57.205Z,100552.63
2023-01-02T16:41:00.237Z,100539.38
2023-01-02T16:43:34.406Z,100546.34
2023-01-02T16:46:14.780Z,100549.16
2023-01-02T16:48:45.112Z,100543.75
2023-01-02T16:51:16.907Z,100544.53
2023-01-02T16:53:47.547Z,100550.81
2023-01-02T16:56:17.793Z,100553.66
2023-01-02T16:58:47.157Z,100560.53
2023-01-02T17:01:18.495Z,100555.03
2023-01-02T17:03:47.822Z,100561.72
2023-01-02T17:06:19.152Z,100563.50
2023-01-02T17:08:49.839Z,100559.81
2023-01-02T17:11:23.145Z,100564.13
2023-01-02T17:13:52.655Z,100562.25
2023-01-02T17:16:22.204Z,100558.16
2023-01-02T17:18:51.256Z,100557.38
2023-01-02T17:21:24.203Z,100556.41
2023-01-02T17:23:58.198Z,100566.50
2023-01-02T17:26:27.633Z,100561.28
2023-01-02T17:28:56.924Z,100564.94
2023-01-02T17:31:26.557Z,100562.38
2023-01-02T17:33:55.866Z,100566.06
2023-01-02T17:36:27.266Z,100561.69
2023-01-02T17:38:59.732Z,100566.28
2023-01-02T17:41:29.216Z,100562.03
2023-01-02T17:44:02.628Z,100550.44
2023-01-02T17:49:22.818Z,100564.09
2023-01-02T17:51:52.078Z,100567.03
2023-01-02T17:54:22.600Z,100559.16
2023-01-02T17:56:52.088Z,100560.25
2023-01-02T17:59:21.283Z,100560.31
2023-01-02T18:01:51.182Z,100561.34
2023-01-02T18:04:20.282Z,100566.72
2023-01-02T18:06:49.696Z,100564.09
2023-01-02T18:09:19.100Z,100567.72
2023-01-02T18:11:50.529Z,100569.66
2023-01-02T18:14:24.618Z,100564.59
2023-01-02T18:16:57.409Z,100554.84
2023-01-02T18:19:28.743Z,100557.53
2023-01-02T18:21:58.232Z,100556.56
2023-01-02T18:24:30.967Z,100569.03
2023-01-02T18:27:12.065Z,100558.09
2023-01-02T18:29:44.448Z,100563.25
2023-01-02T18:32:21.571Z,100571.19
2023-01-02T18:34:57.405Z,100572.91
2023-01-02T18:37:30.266Z,100564.09
2023-01-02T18:40:02.544Z,100563.06
2023-01-02T18:42:37.427Z,100558.38
2023-01-02T18:45:16.979Z,100555.81
2023-01-02T18:47:48.405Z,100553.94
2023-01-02T18:50:32.135Z,100552.72
2023-01-02T18:53:12.540Z,100563.13
2023-01-02T18:55:43.756Z,100561.31
2023-01-02T18:58:34.102Z,100564.13
2023-01-02T19:01:26.168Z,100569.28
2023-01-02T19:04:26.682Z,100565.50
2023-01-02T19:07:00.247Z,100568.84
2023-01-02T19:09:33.291Z,100575.78
2023-01-02T19:12:36.261Z,100571.59
2023-01-02T19:15:33.379Z,100586.63
2023-01-02T19:18:18.598Z,100587.44
2023-01-02T19:20:53.871Z,100579.25
2023-01-02T19:23:29.701Z,100577.16
2023-01-02T19:26:12.925Z,100585.09
2023-01-02T19:28:50.697Z,100581.63
2023-01-02T19:31:21.794Z,100593.63
2023-01-02T19:33:56.373Z,100583.88
2023-01-02T19:36:36.611Z,100590.03
2023-01-02T19:39:25.110Z,100594.72
2023-01-02T19:42:11.837Z,100598.06
2023-01-02T19:44:42.377Z,100594.41
2023-01-02T19:47:13.754Z,100603.28
2023-01-02T19:49:43.023Z,100595.16
2023-01-02T19:52:12.438Z,100604.13
2023-01-02T19:54:42.071Z,100605.72
2023-01-02T19:57:12.667Z,100613.69
2023-01-02T19:59:45.441Z,100606.38
2023-01-02T20:02:18.344Z,100625.00
2023-01-02T20:04:52.304Z,100625.84
2023-01-02T20:07:22.585Z,100626.72
2023-01-02T20:09:53.057Z,100638.09
2023-01-02T20:12:34.185Z,100660.34
2023-01-02T20:15:10.214Z,100658.81
2023-01-02T20:17:43.515Z,100675.16
2023-01-02T20:20:15.914Z,100685.31
2023-01-02T20:22:46.623Z,100696.25
2023-01-02T20:25:18.311Z,100700.88
2023-01-02T20:27:50.075Z,100717.25
2023-01-02T20:30:24.499Z,100714.72
2023-01-02T20:32:56.953Z,100705.16
2023-01-02T20:35:27.883Z,100701.84
2023-01-02T20:37:57.349Z,100710.88
2023-01-02T20:40:28.014Z,100703.25
2023-01-02T20:42:57.449Z,100706.75
2023-01-02T20:45:26.418Z,100722.38
2023-01-02T20:47:57.119Z,100730.91
2023-01-02T20:50:26.244Z,100737.59
2023-01-02T20:52:57.074Z,100740.72
2023-01-02T20:55:26.582Z,100737.25
2023-01-02T20:57:56.301Z,100743.16
2023-01-02T21:00:25.510Z,100750.97
2023-01-02T21:02:56.697Z,100752.66
2023-01-02T21:05:26.566Z,100760.44
2023-01-02T21:07:55.642Z,100768.91
2023-01-02T21:10:24.806Z,100774.56
2023-01-02T21:13:10.829Z,100790.16
2023-01-02T21:15:45.560Z,100796.81
2023-01-02T21:18:18.586Z,100815.81
2023-01-02T21:20:49.555Z,100813.50
2023-01-02T21:23:19.685Z,100822.53
2023-01-02T21:25:52.340Z,100817.44
2023-01-02T21:28:22.738Z,100823.91
2023-01-02T21:30:53.466Z,100813.50
2023-01-02T21:33:27.231Z,100823.53
2023-01-02T21:35:58.331Z,100816.63
2023-01-02T21:38:28.899Z,100823.88
2023-01-02T21:41:20.550Z,100818.63
2023-01-02T21:43:50.193Z,100819.59
2023-01-02T21:46:19.421Z,100820.59
2023-01-02T21:48:50.473Z,100825.00
2023-01-02T21:51:19.601Z,100825.94
2023-01-02T21:53:48.953Z,100834.06
2023-01-02T21:56:18.128Z,100828.81
2023-01-02T21:58:47.589Z,100850.16
2023-01-02T22:01:16.938Z,100831.59
2023-01-02T22:03:46.268Z,100838.81
2023-01-02T22:06:18.592Z,100846.09
2023-01-02T22:08:48.011Z,100847.06
2023-01-02T22:11:34.538Z,100856.13
2023-01-02T22:14:03.973Z,100857.00
2023-01-02T22:16:32.980Z,100844.69
2023-01-02T22:19:02.423Z,100850.13
2023-01-02T22:21:32.794Z,100847.50
2023-01-02T22:24:02.569Z,100842.16
2023-01-02T22:26:32.165Z,100839.56
2023-01-02T22:29:01.716Z,100849.34
2023-01-02T22:31:31.251Z,100849.44
2023-01-02T22:34:01.620Z,100852.19
2023-01-02T22:36:32.484Z,100839.03
2023-01-02T22:39:26.920Z,100849.97
2023-01-02T22:42:34.080Z,100853.72
2023-01-02T22:45:07.285Z,100858.25
2023-01-02T22:47:39.368Z,100860.09
2023-01-02T22:50:12.280Z,100855.66
2023-01-02T22:52:43.528Z,100859.34
2023-01-02T22:55:18.234Z,100854.97
2023-01-02T22:57:51.317Z,100878.97
2023-01-02T23:00:23.363Z,100881.53
2023-01-02T23:02:53.024Z,100887.88
2023-01-02T23:05:22.941Z,100885.13
2023-01-02T23:07:53.932Z,100892.31
2023-01-02T23:10:23.922Z,100902.06
2023-01-02T23:12:52.909Z,100904.72
2023-01-02T23:15:22.343Z,100911.88
2023-01-02T23:18:08.710Z,100929.53
2023-01-02T23:20:38.004Z,100928.78
2023-01-02T23:23:08.655Z,100921.72
2023-01-02T23:25:42.340Z,100938.72
2023-01-02T23:28:16.595Z,100940.63
2023-01-02T23:30:55.342Z,100935.50
2023-01-02T23:33:24.337Z,100941.72
2023-01-02T23:35:54.139Z,100941.09
2023-01-02T23:38:24.536Z,100944.72
2023-01-02T23:40:53.905Z,100955.25
2023-01-02T23:43:22.913Z,100955.47
2023-01-02T23:45:52.798Z,100961.72
2023-01-02T23:48:21.859Z,100962.56
2023-01-02T23:50:58.721Z,100974.25
2023-01-02T23:53:29.575Z,100960.03
2023-01-02T23:56:00.126Z,100964.47
2023-01-02T23:58:29.389Z,100955.56
